METAR AND TAF INFORMATION
METAR FOR KTQH
ADDS - METARS form results

(1535 UTC 17 February 2019)
Data provider http://aviationweather.gov/metar/data/
 
METAR text: KTQH 171515Z AUTO 31011G18KT 10SM OVC019 M01/M03 A2996 RMK AO2
Conditions at: KTQH (TAHLEQUAH , OK, US) observed 1515 UTC 17 February 2019
Temperature: -1.0°C (30°F)
Dewpoint: -3.0°C (27°F) [RH = 86%]
Pressure (altimeter): 29.96 inches Hg (1014.6 mb)
Winds: from the NW (310 degrees) at 13 MPH (11 knots; 5.7 m/s)
gusting to 21 MPH (18 knots; 9.3 m/s)
Visibility: 10 or more miles (16+ km)
Ceiling: 1900 feet AGL
Clouds: overcast cloud deck at 1900 feet AGL
Weather: automated observation with no human augmentation;
there may or may not be significant weather present at this time

METAR text: KTQH 171455Z AUTO 29010G16KT 10SM OVC019 M01/M03 A2995 RMK AO2
Conditions at: KTQH (TAHLEQUAH , OK, US) observed 1455 UTC 17 February 2019
Temperature: -1.0°C (30°F)
Dewpoint: -3.0°C (27°F) [RH = 86%]
Pressure (altimeter): 29.95 inches Hg (1014.3 mb)
Winds: from the WNW (290 degrees) at 12 MPH (10 knots; 5.1 m/s)
gusting to 18 MPH (16 knots; 8.2 m/s)
Visibility: 10 or more miles (16+ km)
Ceiling: 1900 feet AGL
Clouds: overcast cloud deck at 1900 feet AGL
Weather: automated observation with no human augmentation;
there may or may not be significant weather present at this time

 AIRPORT MAP

Esri Leaflet Quickstart
 RUNWAY INFORMATION
Runway 17 Runway length 4000 ft Runway width 75 ft
Runway elevation 873 ft Runway displaced threshold 0 ft Runway heading 182
Runway 35 Runway length 4000 ft Runway width 75 ft
Runway elevation 851 ft Runway displaced threshold 0 ft Runway heading 2

 AIRPORT FREQUENCIES
Type AWOS Name AWOS 3 Frequency 118.425 MHZ
Type CNTR Name MEMPHIS CN Frequency 126.1 MHZ
Type UNIC Name CTAF/UNICO Frequency 122.8 MHZ

 AIRPORT NEAR NAVIGATION AIDS



Powered by Virtual Airlines Manager [v2.6.2]